»·PEaware :: N1671Q KSBA-KBUR

N1671Q :: KSBA-KBUR

FLIGHT INFORMATION

Flight Status: Arrived
Operator: Privately registered:
United States
More flights under this callsign
Pilot: Gary H. (18965)
Aircraft: CESSNA 172 SKYHAWK
(C172)
More flights by this aircraft type
Origin: KSBA Santa Barbara Mun
United States
Destination: KBUR Bob Hope-Burbank
United States
More flights between these airports :: More routes between these airports
Route: +
File this flight plan on PilotEdge
Remarks:
Altitude:
(Current/Filed)
0ft
Speed:
(Current/Filed)
0kts
Departed: 13-Jun-18 08:39 AM
Arrived: 13-Jun-18 09:24 AM
Distance/Time
Traveled:
74nm/0:45
Distance/Time
To Go:
Arrived

Flight Plot

Page will automatically refresh every two minutes.


Map Options




Map Legend


Flown Route
Filed Route
Departure Airport
Arrival Airport
Navaid (VOR, NDB)
Fix

Horizontal Profiles

Position Reports

Time Latitude Longitude Heading Altitude Ground
Speed
13-Jun-18 08:31 34.432569 -119.835084 71 14ft 0kts
13-Jun-18 08:32 34.432569 -119.835084 71 14ft 0kts
13-Jun-18 08:33 34.432569 -119.835084 71 14ft 0kts
13-Jun-18 08:34 34.431820 -119.836069 249 14ft 17kts
13-Jun-18 08:35 34.430732 -119.839752 253 14ft 0kts
13-Jun-18 08:36 34.430732 -119.839752 253 14ft 0kts
13-Jun-18 08:37 34.430732 -119.839752 253 14ft 0kts
13-Jun-18 08:38 34.430715 -119.839823 251 14ft 4kts
13-Jun-18 08:39 34.418080 -119.836970 173 340ft 83kts
13-Jun-18 08:40 34.394192 -119.832522 162 1094ft 85kts
13-Jun-18 08:41 34.374145 -119.820540 125 1625ft 82kts
13-Jun-18 08:42 34.368121 -119.794066 101 2461ft 81kts
13-Jun-18 08:43 34.361876 -119.767934 104 3262ft 82kts
13-Jun-18 08:44 34.358084 -119.740739 100 4021ft 82kts
13-Jun-18 08:45 34.353544 -119.712421 101 4665ft 91kts
13-Jun-18 08:46 34.349106 -119.682383 99 5318ft 89kts
13-Jun-18 08:47 34.345346 -119.651911 98 5586ft 100kts
13-Jun-18 08:48 34.342230 -119.616584 99 5621ft 109kts
13-Jun-18 08:49 34.338087 -119.579288 98 5574ft 112kts
13-Jun-18 08:50 34.334295 -119.541755 97 5549ft 112kts
13-Jun-18 08:51 34.329962 -119.504439 97 5525ft 112kts
13-Jun-18 08:52 34.325486 -119.466948 99 5499ft 112kts
13-Jun-18 08:53 34.320657 -119.429717 97 5484ft 112kts
13-Jun-18 08:54 34.317312 -119.393017 92 5590ft 104kts
13-Jun-18 08:55 34.315482 -119.356391 97 5569ft 111kts
13-Jun-18 08:56 34.311294 -119.320176 96 5635ft 109kts
13-Jun-18 08:57 34.307712 -119.283373 96 5650ft 111kts
13-Jun-18 08:58 34.304354 -119.246058 96 5607ft 112kts
13-Jun-18 08:59 34.301248 -119.208378 95 5584ft 112kts
13-Jun-18 09:00 34.297147 -119.171031 96 5559ft 112kts
13-Jun-18 09:01 34.292985 -119.133838 99 5563ft 111kts
13-Jun-18 09:02 34.288521 -119.096717 100 5569ft 111kts
13-Jun-18 09:03 34.283777 -119.059849 99 5573ft 111kts
13-Jun-18 09:04 34.277736 -119.023126 102 5579ft 111kts
13-Jun-18 09:05 34.272618 -118.986290 98 5586ft 111kts
13-Jun-18 09:06 34.267967 -118.949334 99 5594ft 111kts
13-Jun-18 09:07 34.262618 -118.912568 98 5598ft 111kts
13-Jun-18 09:08 34.258311 -118.875872 89 5642ft 109kts
13-Jun-18 09:09 34.255933 -118.839178 95 5649ft 112kts
13-Jun-18 09:10 34.252676 -118.801466 95 5540ft 113kts
13-Jun-18 09:11 34.249384 -118.764586 97 5492ft 106kts
13-Jun-18 09:12 34.244439 -118.729975 96 5555ft 103kts
13-Jun-18 09:13 34.241683 -118.695728 98 5678ft 105kts
13-Jun-18 09:14 34.236384 -118.659356 97 5635ft 111kts
13-Jun-18 09:15 34.233513 -118.622739 98 5666ft 109kts
13-Jun-18 09:16 34.228379 -118.586700 95 5736ft 106kts
13-Jun-18 09:17 34.224464 -118.550562 96 5485ft 108kts
13-Jun-18 09:18 34.218119 -118.516159 114 5181ft 107kts
13-Jun-18 09:19 34.204395 -118.485023 110 4761ft 104kts
13-Jun-18 09:20 34.199182 -118.450248 93 4057ft 99kts
13-Jun-18 09:21 34.198169 -118.420255 88 3062ft 88kts
13-Jun-18 09:22 34.198112 -118.393292 88 2019ft 75kts
13-Jun-18 09:23 34.197905 -118.367471 89 752ft 76kts
13-Jun-18 09:24 34.198562 -118.360386 356 717ft 0kts
13-Jun-18 09:25 34.198752 -118.360424 336 718ft 8kts
13-Jun-18 09:26 34.199034 -118.363000 300 723ft 5kts
13-Jun-18 09:27 34.200021 -118.364614 8 726ft 4kts
13-Jun-18 09:28 34.200159 -118.364301 80 726ft 0kts

Navigation Log

Ident Type
1. KSBA Airport
2. KBUR Airport